Terminal Aerodrome Forecast
Issued by NWS

Home | Current Version | Previous Version | Text Only | Print | Product List | Glossary On
Versions: 1 2 3 4 5 6 7 8 9 10 11 12
000
FTUS43 KGRB 261720
TAFATW
TAF
KATW 261720Z 2618/2718 25007KT P6SM VCSH SCT040 BKN100
      TEMPO 2618/2622 4SM -TSRA BR BKN040CB
     FM262200 26010KT P6SM VCSH SCT030 OVC050
     FM270100 29010KT P6SM SCT015 OVC040
     FM270900 30008KT P6SM SCT012 BKN035
      TEMPO 2709/2713 BKN012
     FM271400 31012G18KT P6SM SCT025 BKN050=

USA.gov is the U.S. government's official web portal to all federal, state and local government web resources and services.